Time;durP1;ratioP1;P1;durP2;ratioP2;P2;SDS_P1;SDS_P2;PMS_P1;PMS_P2;Temp;Humidity;BMP_temperature;BMP_pressure;BME280_temperature;BME280_humidity;BME280_pressure;Samples;Min_cycle;Max_cycle;Signal;HPM_P1;HPM_P2
2021/11/30 07:08:19;;;;;;;16.55;9.98;;;6.10;89.20;;;;;;5125755;27;20118;-63
2021/11/30 07:11:17;;;;;;;20.63;12.32;;;6.10;90.10;;;;;;5124967;28;20111;-63
2021/11/30 07:13:35;;;;;;;16.38;10.15;;;6.10;90.30;;;;;;5125835;28;20118;-63
2021/11/30 07:16:05;;;;;;;16.58;10.70;;;6.10;90.40;;;;;;5122036;28;20118;-63
2021/11/30 07:18:32;;;;;;;19.75;10.43;;;6.20;90.50;;;;;;5121146;27;20039;-64
2021/11/30 07:21:01;;;;;;;18.88;10.68;;;6.30;90.50;;;;;;5117696;28;20023;-63
2021/11/30 07:23:29;;;;;;;20.15;11.50;;;6.40;90.40;;;;;;5116046;28;20517;-63
2021/11/30 07:25:55;;;;;;;16.95;11.02;;;6.40;90.40;;;;;;5116172;28;20035;-63
2021/11/30 07:28:31;;;;;;;19.85;11.45;;;6.50;90.40;;;;;;5123496;28;20058;-63
2021/11/30 07:30:59;;;;;;;19.05;11.02;;;6.60;90.30;;;;;;5123136;28;20055;-63
2021/11/30 07:33:25;;;;;;;18.35;10.60;;;6.70;90.30;;;;;;5122152;28;20024;-62
2021/11/30 07:35:51;;;;;;;17.10;10.23;;;6.70;90.30;;;;;;5127151;27;20436;-63
2021/11/30 07:38:17;;;;;;;17.27;10.65;;;6.70;90.30;;;;;;5127121;27;20539;-63
2021/11/30 07:40:43;;;;;;;19.58;11.20;;;6.80;90.40;;;;;;5129858;27;20407;-63
2021/11/30 07:43:09;;;;;;;18.30;10.85;;;6.90;90.40;;;;;;5124718;27;20071;-63
2021/11/30 07:45:35;;;;;;;18.90;11.25;;;6.90;90.80;;;;;;5126876;27;20023;-63
2021/11/30 07:48:02;;;;;;;17.80;11.55;;;7.00;90.40;;;;;;5123047;28;20076;-63
2021/11/30 07:50:27;;;;;;;19.27;10.88;;;7.00;90.40;;;;;;5110080;27;20031;-63
2021/11/30 07:52:54;;;;;;;15.60;10.25;;;7.10;90.50;;;;;;5124001;28;20398;-63
2021/11/30 07:55:20;;;;;;;16.63;8.88;;;7.10;90.50;;;;;;5114802;28;20517;-63
2021/11/30 07:57:46;;;;;;;17.00;10.13;;;7.10;90.50;;;;;;5117055;28;20024;-63
2021/11/30 08:00:15;;;;;;;19.10;10.25;;;7.20;90.50;;;;;;5122035;28;20422;-62
2021/11/30 08:02:41;;;;;;;15.75;9.77;;;7.20;90.50;;;;;;5119987;28;20038;-63
2021/11/30 08:05:08;;;;;;;15.63;9.48;;;7.30;90.50;;;;;;5105999;28;20450;-63
2021/11/30 08:07:34;;;;;;;19.10;9.75;;;7.30;90.50;;;;;;5124031;28;20437;-63
2021/11/30 08:10:01;;;;;;;13.90;9.20;;;7.40;90.60;;;;;;5122044;28;20054;-63
2021/11/30 08:12:27;;;;;;;15.27;9.25;;;7.40;90.60;;;;;;5121223;28;20066;-63
2021/11/30 08:14:53;;;;;;;16.20;8.80;;;7.50;90.60;;;;;;5122411;28;20051;-63
2021/11/30 08:17:20;;;;;;;16.85;9.05;;;7.50;90.60;;;;;;5121224;28;20028;-63
2021/11/30 08:19:47;;;;;;;14.07;8.68;;;7.60;90.60;;;;;;5101433;28;20030;-63
2021/11/30 08:22:15;;;;;;;13.85;8.70;;;7.70;90.50;;;;;;5105805;28;20036;-63
2021/11/30 08:24:42;;;;;;;13.27;8.95;;;7.80;90.30;;;;;;5106087;27;20027;-63
2021/11/30 08:27:08;;;;;;;19.58;8.60;;;7.90;90.20;;;;;;5107233;28;20040;-63
2021/11/30 08:29:44;;;;;;;13.93;8.48;;;7.90;90.20;;;;;;5109366;28;20016;-63
2021/11/30 08:32:10;;;;;;;13.75;8.27;;;8.00;90.20;;;;;;5106060;27;20524;-63
2021/11/30 08:34:40;;;;;;;14.80;8.15;;;8.10;90.10;;;;;;5109853;28;20139;-63
2021/11/30 08:37:09;;;;;;;15.52;8.55;;;8.10;90.00;;;;;;5108802;28;20050;-63
2021/11/30 08:39:35;;;;;;;15.48;8.02;;;8.10;89.90;;;;;;5107377;27;20028;-63
2021/11/30 08:42:03;;;;;;;15.13;8.10;;;8.20;89.70;;;;;;5110653;28;20048;-63
2021/11/30 08:44:31;;;;;;;15.27;7.57;;;8.20;89.70;;;;;;5115487;27;20026;-63
2021/11/30 08:46:58;;;;;;;15.63;8.40;;;8.30;89.70;;;;;;5103071;28;20044;-62
2021/11/30 08:49:27;;;;;;;16.58;8.13;;;8.30;89.60;;;;;;5101495;27;20089;-63
2021/11/30 08:51:56;;;;;;;15.07;8.45;;;8.30;89.50;;;;;;5103526;28;20032;-63
2021/11/30 08:54:23;;;;;;;13.20;8.02;;;8.40;89.40;;;;;;5109182;28;20031;-63
2021/11/30 08:56:49;;;;;;;12.02;8.02;;;8.50;89.20;;;;;;5108472;28;20436;-63
2021/11/30 08:59:15;;;;;;;13.07;8.13;;;8.50;89.00;;;;;;5109296;28;20073;-63
2021/11/30 09:01:42;;;;;;;14.18;7.55;;;8.50;88.80;;;;;;5109585;28;20531;-63
2021/11/30 09:04:08;;;;;;;14.05;7.63;;;8.60;88.70;;;;;;5106221;27;20453;-63
2021/11/30 09:06:34;;;;;;;14.13;8.05;;;8.60;88.70;;;;;;5101965;28;20048;-63
2021/11/30 09:09:02;;;;;;;13.07;8.18;;;8.60;88.80;;;;;;5104015;28;20490;-64
2021/11/30 09:11:28;;;;;;;14.05;7.53;;;8.70;89.00;;;;;;5102775;28;20100;-63
2021/11/30 09:13:54;;;;;;;12.30;7.93;;;8.70;89.00;;;;;;5100324;28;20054;-64
2021/11/30 09:16:21;;;;;;;12.90;7.25;;;8.70;89.10;;;;;;5100460;28;20391;-64
2021/11/30 09:18:48;;;;;;;18.88;7.85;;;8.80;89.20;;;;;;5108658;28;20104;-64
2021/11/30 09:21:14;;;;;;;13.15;6.80;;;8.80;89.20;;;;;;5106679;28;20110;-63
2021/11/30 09:23:43;;;;;;;12.25;6.90;;;9.00;89.00;;;;;;5108935;28;20023;-63
2021/11/30 09:26:09;;;;;;;10.63;7.38;;;9.30;88.40;;;;;;5109585;27;20051;-63
2021/11/30 09:28:35;;;;;;;11.55;7.20;;;9.50;87.80;;;;;;5108380;28;20019;-64
2021/11/30 09:31:01;;;;;;;12.85;7.00;;;9.60;87.60;;;;;;5105930;28;20034;-63
2021/11/30 09:33:27;;;;;;;13.60;7.15;;;9.70;87.40;;;;;;5105495;28;20031;-64
2021/11/30 09:35:52;;;;;;;13.30;7.13;;;9.70;87.20;;;;;;5107785;28;20032;-64
2021/11/30 09:38:18;;;;;;;12.10;6.82;;;9.70;87.10;;;;;;5108089;28;25525;-63
2021/11/30 09:40:44;;;;;;;11.30;6.57;;;10.00;86.50;;;;;;5110822;28;20066;-63
2021/11/30 09:43:10;;;;;;;9.70;6.30;;;10.00;86.00;;;;;;5107120;28;20570;-63
2021/11/30 09:45:38;;;;;;;10.60;6.45;;;10.30;85.40;;;;;;5108617;28;20043;-63
2021/11/30 09:48:10;;;;;;;11.95;6.93;;;10.60;84.20;;;;;;5106816;28;20467;-64
2021/11/30 09:50:38;;;;;;;11.00;6.78;;;10.50;83.70;;;;;;5106829;28;20080;-64
2021/11/30 09:53:06;;;;;;;11.73;6.82;;;10.80;82.90;;;;;;5106613;28;20111;-63
2021/11/30 09:55:32;;;;;;;9.90;6.72;;;10.90;82.50;;;;;;5108638;28;20035;-63
2021/11/30 09:57:58;;;;;;;11.93;7.22;;;10.80;82.00;;;;;;5105339;28;20039;-64
2021/11/30 10:00:25;;;;;;;10.80;7.25;;;10.80;82.00;;;;;;5106044;28;20020;-63
2021/11/30 10:02:54;;;;;;;9.13;7.07;;;10.70;82.00;;;;;;5107395;28;20032;-64
2021/11/30 10:05:20;;;;;;;11.52;6.68;;;11.10;82.10;;;;;;5106467;28;20035;-63
2021/11/30 10:07:50;;;;;;;14.05;9.82;;;11.60;79.70;;;;;;5108991;28;20424;-63
2021/11/30 10:10:22;;;;;;;10.00;5.80;;;12.70;76.90;;;;;;5106540;28;20024;-63
2021/11/30 10:13:00;;;;;;;9.18;6.05;;;12.90;74.80;;;;;;5105287;27;20027;-63
2021/11/30 10:15:28;;;;;;;10.20;6.18;;;12.90;74.50;;;;;;5105282;28;20426;-63
2021/11/30 10:18:26;;;;;;;11.25;6.03;;;12.70;75.00;;;;;;5107038;28;20510;-62
2021/11/30 10:21:12;;;;;;;13.48;6.10;;;12.60;75.60;;;;;;5106983;28;20038;-63
2021/11/30 10:23:47;;;;;;;9.45;5.72;;;12.50;75.60;;;;;;5091537;28;20051;-63
2021/11/30 10:26:14;;;;;;;13.27;6.43;;;12.40;75.90;;;;;;5107450;27;20524;-63
2021/11/30 10:28:39;;;;;;;11.70;6.03;;;12.20;76.20;;;;;;5105944;28;20024;-63
2021/11/30 10:31:09;;;;;;;8.05;5.18;;;12.10;76.90;;;;;;5105831;28;20019;-63
2021/11/30 10:33:35;;;;;;;9.63;5.60;;;11.90;77.60;;;;;;5105464;28;20020;-63
2021/11/30 10:36:04;;;;;;;9.55;5.50;;;11.80;78.30;;;;;;5105805;28;20039;-63
2021/11/30 10:38:37;;;;;;;7.90;5.18;;;11.70;79.00;;;;;;5107961;28;20031;-63
2021/11/30 10:41:19;;;;;;;11.57;6.07;;;11.60;79.60;;;;;;5106827;28;20024;-63
2021/11/30 10:43:52;;;;;;;10.90;5.63;;;11.60;79.90;;;;;;5109673;28;20023;-63
2021/11/30 10:46:23;;;;;;;12.40;5.47;;;11.60;80.10;;;;;;5106445;27;20016;-64
2021/11/30 10:48:49;;;;;;;10.85;5.53;;;11.50;80.20;;;;;;5099403;28;20050;-64
2021/11/30 10:51:15;;;;;;;11.18;5.65;;;11.50;80.40;;;;;;5095949;28;20047;-64
2021/11/30 10:53:44;;;;;;;10.77;5.80;;;11.50;80.50;;;;;;5108577;28;20078;-64
2021/11/30 10:56:10;;;;;;;8.20;5.18;;;11.60;80.50;;;;;;5106039;28;20054;-64
2021/11/30 10:58:39;;;;;;;8.43;4.90;;;11.70;80.30;;;;;;5107707;28;20048;-63
2021/11/30 11:01:18;;;;;;;13.02;5.97;;;11.60;80.30;;;;;;5107204;28;20074;-64
2021/11/30 11:03:46;;;;;;;8.43;5.53;;;11.70;80.10;;;;;;5101670;28;20433;-64
2021/11/30 11:06:31;;;;;;;8.38;4.90;;;11.80;79.60;;;;;;5105384;28;20050;-64
2021/11/30 11:09:04;;;;;;;10.95;5.05;;;11.90;79.30;;;;;;5095417;28;20395;-64
2021/11/30 11:11:43;;;;;;;8.73;4.35;;;12.00;79.00;;;;;;5103862;28;20036;-64
2021/11/30 11:14:21;;;;;;;7.30;4.03;;;12.00;78.50;;;;;;5105820;28;20023;-64
2021/11/30 11:16:52;;;;;;;7.95;4.22;;;12.20;78.10;;;;;;5094315;28;20040;-64
2021/11/30 11:19:38;;;;;;;7.93;4.40;;;12.40;77.70;;;;;;5095250;28;20028;-64
2021/11/30 11:22:22;;;;;;;11.13;4.32;;;12.60;76.90;;;;;;5094890;28;20028;-64
2021/11/30 11:24:51;;;;;;;7.78;4.45;;;12.70;76.30;;;;;;5094234;28;20048;-64
2021/11/30 11:27:42;;;;;;;8.43;4.22;;;13.00;75.70;;;;;;5097026;28;20027;-65
2021/11/30 11:30:12;;;;;;;8.27;4.78;;;13.20;74.70;;;;;;5104772;28;20083;-65
2021/11/30 11:32:38;;;;;;;7.80;4.55;;;13.50;74.10;;;;;;5091923;28;20057;-65
2021/11/30 11:35:05;;;;;;;7.38;4.22;;;14.00;72.80;;;;;;5091810;28;20546;-65
2021/11/30 11:37:31;;;;;;;10.82;4.88;;;14.80;70.70;;;;;;5095682;28;20479;-65
2021/11/30 11:39:57;;;;;;;7.68;4.40;;;16.60;67.00;;;;;;5094596;28;20028;-65
2021/11/30 11:42:23;;;;;;;9.15;4.18;;;18.30;61.80;;;;;;5095118;28;20080;-65
2021/11/30 11:44:50;;;;;;;7.63;4.18;;;18.80;59.20;;;;;;5093457;28;20023;-65
2021/11/30 11:47:21;;;;;;;7.68;4.20;;;19.50;56.60;;;;;;5091806;28;20039;-65
2021/11/30 11:49:48;;;;;;;;;;;19.00;55.80;;;;;;5095918;28;20016;-65
2021/11/30 11:52:26;;;;;;;8.02;3.80;;;18.80;56.70;;;;;;5095196;28;20355;-65
2021/11/30 11:55:05;;;;;;;7.10;3.85;;;18.20;56.90;;;;;;5097793;28;20562;-65
2021/11/30 11:57:32;;;;;;;7.35;4.18;;;18.30;57.40;;;;;;5102857;28;20042;-65
2021/11/30 12:00:21;;;;;;;8.80;3.90;;;18.60;55.80;;;;;;5109854;28;20034;-65
2021/11/30 12:02:49;;;;;;;7.22;3.55;;;18.30;56.20;;;;;;5096419;28;20031;-64
2021/11/30 12:05:15;;;;;;;8.00;3.70;;;18.20;56.60;;;;;;5095139;28;20081;-65
2021/11/30 12:07:54;;;;;;;7.45;3.70;;;17.70;57.60;;;;;;5097890;28;20049;-65
2021/11/30 12:10:21;;;;;;;8.25;4.03;;;16.90;59.40;;;;;;5097718;28;20052;-65
2021/11/30 12:12:59;;;;;;;7.80;3.88;;;16.30;61.20;;;;;;5097794;28;20521;-65
2021/11/30 12:15:26;;;;;;;7.03;3.60;;;15.90;63.00;;;;;;5097912;28;20031;-65
2021/11/30 12:17:52;;;;;;;9.10;3.53;;;15.70;64.00;;;;;;5101071;28;20107;-64
2021/11/30 12:20:19;;;;;;;6.18;3.58;;;15.40;64.80;;;;;;5094508;28;20032;-64
2021/11/30 12:22:56;;;;;;;7.00;3.53;;;15.10;65.70;;;;;;5097263;28;20027;-64
2021/11/30 12:25:41;;;;;;;10.10;3.80;;;15.00;65.90;;;;;;5098273;28;20035;-65
2021/11/30 12:28:09;;;;;;;7.05;3.42;;;15.00;66.30;;;;;;5106361;28;20024;-65
2021/11/30 12:30:38;;;;;;;8.40;3.25;;;14.90;66.40;;;;;;5103787;28;20074;-65
2021/11/30 12:33:06;;;;;;;6.90;3.00;;;14.90;66.50;;;;;;5097800;28;20020;-65
2021/11/30 12:35:48;;;;;;;7.00;3.22;;;15.00;66.50;;;;;;5093964;28;20024;-65
2021/11/30 12:38:16;;;;;;;7.40;3.25;;;15.20;66.50;;;;;;5094332;28;20043;-65
2021/11/30 12:40:43;;;;;;;9.02;2.90;;;15.70;66.40;;;;;;5097514;28;20390;-65
2021/11/30 12:43:14;;;;;;;8.00;2.88;;;16.30;65.30;;;;;;5108577;27;20092;-63
2021/11/30 12:45:46;;;;;;;6.35;3.30;;;16.30;64.30;;;;;;5110231;27;20020;-64
2021/11/30 12:48:34;;;;;;;8.45;3.10;;;16.10;64.30;;;;;;5107573;27;20038;-64
2021/11/30 12:51:36;;;;;;;8.20;3.53;;;16.20;62.50;;;;;;5097877;28;20106;-64
2021/11/30 12:54:03;;;;;;;;;;;17.20;59.60;;;;;;5046906;28;20120;-65
2021/11/30 12:56:49;;;;;;;6.03;2.50;;;18.30;56.80;;;;;;5046084;28;19913;-65
2021/11/30 12:59:42;;;;;;;5.25;2.30;;;18.60;54.50;;;;;;5046353;28;20025;-65
2021/11/30 13:02:26;;;;;;;6.78;2.20;;;18.30;54.30;;;;;;5045790;28;20045;-64
2021/11/30 13:05:08;;;;;;;7.25;2.33;;;19.40;55.60;;;;;;5051488;28;20040;-64
2021/11/30 13:07:46;;;;;;;6.00;2.22;;;18.30;55.00;;;;;;5048176;28;20523;-65
2021/11/30 13:10:24;;;;;;;7.10;2.20;;;18.50;54.60;;;;;;5046084;28;20040;-65
2021/11/30 13:12:52;;;;;;;5.78;2.08;;;18.00;55.10;;;;;;5039688;28;20029;-65
2021/11/30 13:15:18;;;;;;;4.88;1.70;;;18.00;55.30;;;;;;5036761;28;20045;-65
2021/11/30 13:17:45;;;;;;;5.72;1.95;;;18.80;52.40;;;;;;5035595;28;20073;-65
2021/11/30 13:20:14;;;;;;;4.05;1.40;;;18.90;52.10;;;;;;5048244;28;20032;-65
2021/11/30 13:22:41;;;;;;;4.75;1.40;;;17.90;53.50;;;;;;5044134;28;20038;-65
2021/11/30 13:25:14;;;;;;;5.53;1.65;;;17.20;55.60;;;;;;5043026;28;20374;-65
2021/11/30 13:27:48;;;;;;;4.28;1.30;;;16.60;57.10;;;;;;5053356;28;20044;-63
2021/11/30 13:30:18;;;;;;;4.57;1.50;;;16.20;58.10;;;;;;5074757;28;20020;-64
2021/11/30 13:32:53;;;;;;;4.63;1.20;;;15.90;58.80;;;;;;5067727;28;20020;-65
2021/11/30 13:35:20;;;;;;;4.38;1.10;;;15.60;59.80;;;;;;5052603;28;20036;-65
2021/11/30 13:37:52;;;;;;;3.47;0.90;;;15.30;60.20;;;;;;5061256;28;20040;-64
2021/11/30 13:40:34;;;;;;;4.65;1.10;;;15.10;61.30;;;;;;5065342;28;20103;-64
2021/11/30 13:43:01;;;;;;;4.50;1.10;;;14.90;60.60;;;;;;5058921;28;20068;-64
2021/11/30 13:45:29;;;;;;;5.10;1.17;;;14.70;61.00;;;;;;5063181;28;20364;-64
2021/11/30 13:47:56;;;;;;;4.45;1.00;;;14.60;61.50;;;;;;5068199;28;20491;-64
2021/11/30 13:50:25;;;;;;;5.15;0.98;;;14.40;61.90;;;;;;5063141;28;20253;-64
2021/11/30 13:53:10;;;;;;;4.07;0.90;;;14.30;62.70;;;;;;5082402;28;20024;-63
2021/11/30 13:55:38;;;;;;;3.58;0.98;;;14.30;63.20;;;;;;5066765;28;20067;-65
2021/11/30 13:58:11;;;;;;;3.65;1.10;;;14.30;63.00;;;;;;5057449;28;20045;-65
2021/11/30 14:00:44;;;;;;;2.90;1.00;;;14.20;63.10;;;;;;5055971;28;20029;-65
2021/11/30 14:03:09;;;;;;;4.57;1.10;;;14.20;62.80;;;;;;5072436;28;20036;-64
2021/11/30 14:05:35;;;;;;;3.10;0.90;;;14.20;63.00;;;;;;5062855;28;20091;-64
2021/11/30 14:08:01;;;;;;;4.55;0.85;;;14.20;63.10;;;;;;5094052;28;20039;-64
2021/11/30 14:10:29;;;;;;;5.78;1.00;;;14.10;63.30;;;;;;5106748;28;20053;-64
2021/11/30 14:13:01;;;;;;;4.80;1.23;;;13.90;63.60;;;;;;5095990;27;20048;-64
2021/11/30 14:15:27;;;;;;;6.22;2.25;;;13.80;64.00;;;;;;5098867;28;20024;-64
2021/11/30 14:18:05;;;;;;;14.43;6.45;;;13.80;64.30;;;;;;5098355;28;20096;-64
2021/11/30 14:20:31;;;;;;;3.85;0.70;;;13.60;64.50;;;;;;5105825;28;20016;-63
2021/11/30 14:22:57;;;;;;;2.72;0.80;;;13.50;64.60;;;;;;5095464;28;20024;-63
2021/11/30 14:25:28;;;;;;;2.63;0.80;;;13.40;65.30;;;;;;5107476;28;20059;-64
2021/11/30 14:27:57;;;;;;;3.00;0.75;;;13.30;65.40;;;;;;5099595;28;20567;-63
2021/11/30 14:30:31;;;;;;;2.70;0.90;;;13.30;65.90;;;;;;5094334;28;20424;-63
2021/11/30 14:33:09;;;;;;;4.45;1.52;;;13.20;66.30;;;;;;5103173;28;20035;-63
2021/11/30 14:35:48;;;;;;;3.33;1.40;;;13.10;66.80;;;;;;5096487;28;20020;-63
2021/11/30 14:38:42;;;;;;;6.05;1.20;;;13.00;67.20;;;;;;5108606;28;20666;-63
2021/11/30 14:41:12;;;;;;;4.22;0.90;;;13.00;67.60;;;;;;5106745;28;20027;-63
2021/11/30 14:43:38;;;;;;;4.00;1.00;;;12.90;67.80;;;;;;5106505;28;20046;-63
2021/11/30 14:46:05;;;;;;;4.20;1.02;;;12.90;68.00;;;;;;5102042;28;20032;-63
2021/11/30 14:48:37;;;;;;;5.20;1.10;;;12.90;68.30;;;;;;5098312;28;20020;-63
2021/11/30 14:51:04;;;;;;;4.85;1.10;;;12.90;68.50;;;;;;5094934;28;20036;-64
2021/11/30 14:53:43;;;;;;;3.97;1.13;;;13.00;68.60;;;;;;5101379;28;20024;-63
2021/11/30 14:56:13;;;;;;;5.55;1.08;;;13.00;68.60;;;;;;5091152;28;20408;-64
2021/11/30 14:58:43;;;;;;;5.10;1.10;;;12.90;68.80;;;;;;5097485;28;20027;-64
2021/11/30 15:01:24;;;;;;;7.32;1.30;;;12.90;69.00;;;;;;5098564;28;20419;-64
2021/11/30 15:04:03;;;;;;;8.13;1.42;;;12.90;69.30;;;;;;5094879;28;20040;-64
2021/11/30 15:06:47;;;;;;;3.63;1.08;;;12.80;69.50;;;;;;5095130;28;20048;-64
2021/11/30 15:09:22;;;;;;;13.40;1.77;;;12.80;69.70;;;;;;5102661;28;20127;-64
2021/11/30 15:12:00;;;;;;;6.28;1.30;;;12.80;69.90;;;;;;5102411;28;20058;-64
2021/11/30 15:14:36;;;;;;;6.20;1.60;;;12.70;70.20;;;;;;5090846;28;20119;-64
2021/11/30 15:17:20;;;;;;;9.00;1.90;;;12.70;70.30;;;;;;5093562;28;20071;-65
2021/11/30 15:19:48;;;;;;;5.65;1.60;;;12.60;70.50;;;;;;5104848;28;20047;-64
2021/11/30 15:22:24;;;;;;;11.60;4.13;;;12.60;70.90;;;;;;5095643;28;20089;-64
2021/11/30 15:24:53;;;;;;;7.90;2.38;;;12.60;71.30;;;;;;5094540;28;20032;-64
2021/11/30 15:27:20;;;;;;;6.38;1.70;;;12.50;71.50;;;;;;5098357;28;20050;-65
2021/11/30 15:29:48;;;;;;;6.50;1.80;;;12.50;71.90;;;;;;5101298;28;20028;-64
2021/11/30 15:32:17;;;;;;;6.38;1.65;;;12.40;72.00;;;;;;5077456;28;20020;-63
2021/11/30 15:34:43;;;;;;;5.85;1.73;;;12.40;72.20;;;;;;5107262;28;20035;-64
2021/11/30 15:37:10;;;;;;;4.90;1.70;;;12.40;72.30;;;;;;5100615;28;20495;-64
2021/11/30 15:39:37;;;;;;;4.00;1.60;;;12.30;72.50;;;;;;5103272;28;20035;-64
2021/11/30 15:42:06;;;;;;;4.82;1.85;;;12.30;72.70;;;;;;5112058;27;20042;-64
2021/11/30 15:44:33;;;;;;;7.38;1.80;;;12.30;72.90;;;;;;5110389;28;20027;-64
2021/11/30 15:46:58;;;;;;;4.85;1.80;;;12.20;73.00;;;;;;5103988;27;20023;-64
2021/11/30 15:49:24;;;;;;;4.53;1.50;;;12.20;73.20;;;;;;5102593;28;20447;-64
2021/11/30 15:51:53;;;;;;;6.55;1.75;;;12.10;73.40;;;;;;5110441;27;20019;-64
2021/11/30 15:54:20;;;;;;;4.85;1.80;;;12.10;73.60;;;;;;5106546;28;20031;-64
2021/11/30 15:59:39;;;;;;;5.40;1.90;;;12.10;73.90;;;;;;5101529;28;20687;-64
2021/11/30 16:02:11;;;;;;;6.63;1.90;;;12.00;74.10;;;;;;5096439;28;20055;-64
2021/11/30 16:04:37;;;;;;;5.32;1.52;;;12.00;74.30;;;;;;5109175;28;20127;-63
2021/11/30 16:07:03;;;;;;;6.18;1.83;;;11.90;75.30;;;;;;5109189;28;20049;-64
2021/11/30 16:09:29;;;;;;;4.88;1.90;;;11.90;74.70;;;;;;5108925;27;20035;-64
2021/11/30 16:11:55;;;;;;;4.03;1.63;;;11.90;74.60;;;;;;5109563;28;20028;-64
2021/11/30 16:14:22;;;;;;;6.65;1.77;;;11.90;74.80;;;;;;5094106;28;20051;-64
2021/11/30 16:16:48;;;;;;;9.60;1.60;;;11.80;74.90;;;;;;5110574;28;20051;-63
2021/11/30 16:19:15;;;;;;;5.57;1.50;;;11.80;75.00;;;;;;5112036;27;20551;-64
2021/11/30 16:21:42;;;;;;;4.80;1.40;;;11.80;75.00;;;;;;5117672;27;20513;-64
2021/11/30 16:24:08;;;;;;;5.63;1.40;;;11.80;75.10;;;;;;5103171;28;20038;-65
2021/11/30 16:26:35;;;;;;;5.57;1.42;;;11.70;75.10;;;;;;5102286;27;20028;-64
2021/11/30 16:29:03;;;;;;;4.50;1.38;;;11.80;75.30;;;;;;5095199;28;20025;-65
2021/11/30 16:31:31;;;;;;;6.40;1.40;;;11.70;75.30;;;;;;5106626;28;20486;-64
2021/11/30 16:34:05;;;;;;;4.78;1.20;;;11.70;75.30;;;;;;5097335;28;20810;-65
2021/11/30 16:36:33;;;;;;;4.90;1.25;;;11.60;75.50;;;;;;5106697;27;20039;-66
2021/11/30 16:38:59;;;;;;;12.82;6.07;;;11.60;75.50;;;;;;5106361;27;20040;-66
2021/11/30 16:41:25;;;;;;;6.20;1.60;;;11.60;75.60;;;;;;5092356;28;20027;-66
2021/11/30 16:43:52;;;;;;;4.30;1.30;;;11.60;75.50;;;;;;5104947;28;20092;-65
2021/11/30 16:46:19;;;;;;;6.22;1.15;;;11.60;75.50;;;;;;5103723;28;20443;-65
2021/11/30 16:48:45;;;;;;;4.35;1.30;;;11.60;75.30;;;;;;5100554;28;20031;-65
2021/11/30 16:51:11;;;;;;;4.47;1.23;;;11.60;75.10;;;;;;5107097;27;20398;-64
2021/11/30 16:53:37;;;;;;;4.55;1.50;;;11.60;75.10;;;;;;5096424;28;20027;-65
2021/11/30 16:56:04;;;;;;;7.72;2.00;;;11.50;75.00;;;;;;5103709;28;20028;-64
2021/11/30 16:58:31;;;;;;;6.00;1.77;;;11.50;75.10;;;;;;5100305;28;20118;-65
2021/11/30 17:00:57;;;;;;;5.47;1.55;;;11.50;75.00;;;;;;5098593;28;20060;-64
2021/11/30 17:03:23;;;;;;;6.45;1.67;;;11.50;74.90;;;;;;5100102;28;20108;-65
2021/11/30 17:05:49;;;;;;;4.03;1.70;;;11.50;75.10;;;;;;5102684;28;20030;-65
2021/11/30 17:08:15;;;;;;;5.50;1.65;;;11.50;75.00;;;;;;5095806;28;20063;-66
2021/11/30 17:10:41;;;;;;;5.10;2.00;;;11.50;75.10;;;;;;5107028;28;20104;-65
2021/11/30 17:13:07;;;;;;;6.00;1.70;;;11.50;75.20;;;;;;5104120;27;20047;-64
2021/11/30 17:15:33;;;;;;;4.47;1.63;;;11.50;76.30;;;;;;5098599;28;20031;-64
2021/11/30 17:17:59;;;;;;;4.80;1.60;;;11.50;75.40;;;;;;5097370;28;20498;-64
2021/11/30 17:20:26;;;;;;;5.35;1.60;;;11.50;75.40;;;;;;5095003;28;20027;-64
2021/11/30 17:22:57;;;;;;;5.15;1.58;;;11.50;75.50;;;;;;5096797;28;20487;-64
2021/11/30 17:25:23;;;;;;;7.30;2.03;;;11.50;75.30;;;;;;5095931;28;20032;-64
2021/11/30 17:27:50;;;;;;;6.57;1.80;;;11.50;75.40;;;;;;5098136;27;20594;-64
2021/11/30 17:30:29;;;;;;;7.00;2.10;;;11.40;75.30;;;;;;5102801;28;20028;-65
2021/11/30 17:32:58;;;;;;;7.35;2.08;;;11.40;75.40;;;;;;5099638;27;20035;-64
2021/11/30 17:35:24;;;;;;;5.38;2.00;;;11.40;75.40;;;;;;5105909;28;20432;-65
2021/11/30 17:37:50;;;;;;;6.13;1.90;;;11.40;75.60;;;;;;5108836;27;20032;-65
2021/11/30 17:40:18;;;;;;;5.68;1.88;;;11.40;75.60;;;;;;5106444;27;20030;-65
2021/11/30 17:42:44;;;;;;;8.60;2.10;;;11.40;75.50;;;;;;5100857;28;20398;-65
2021/11/30 17:45:12;;;;;;;7.90;1.80;;;11.40;75.50;;;;;;5098522;28;20387;-65
2021/11/30 17:47:42;;;;;;;7.35;1.48;;;11.40;75.40;;;;;;5107178;27;20034;-63
2021/11/30 17:50:10;;;;;;;6.28;1.80;;;11.40;75.40;;;;;;5108484;27;20024;-63
2021/11/30 17:52:36;;;;;;;4.45;1.58;;;11.40;75.40;;;;;;5112113;27;20031;-63
2021/11/30 17:55:03;;;;;;;4.47;1.45;;;11.40;75.40;;;;;;5118020;27;20031;-63
2021/11/30 17:57:30;;;;;;;6.75;1.77;;;11.40;75.30;;;;;;5100040;28;20044;-63
2021/11/30 17:59:56;;;;;;;11.80;3.72;;;11.30;75.10;;;;;;5105663;27;20156;-63
2021/11/30 18:02:25;;;;;;;6.07;1.92;;;11.40;75.30;;;;;;5094208;27;20102;-63
2021/11/30 18:04:55;;;;;;;5.88;1.27;;;11.30;75.00;;;;;;5107258;27;20453;-63
2021/11/30 18:07:21;;;;;;;5.07;1.55;;;11.40;75.00;;;;;;5107827;27;20044;-63
2021/11/30 18:09:48;;;;;;;4.38;1.45;;;11.40;74.80;;;;;;5111067;27;20088;-64
2021/11/30 18:12:16;;;;;;;4.65;1.35;;;11.40;74.50;;;;;;5108118;27;20517;-63
2021/11/30 18:14:43;;;;;;;3.83;1.10;;;11.30;74.50;;;;;;5116043;27;20043;-63
2021/11/30 18:17:09;;;;;;;3.15;1.00;;;11.30;74.20;;;;;;5099288;28;20104;-63
2021/11/30 18:19:35;;;;;;;4.53;1.25;;;11.30;74.00;;;;;;5099621;27;20482;-63
2021/11/30 18:22:01;;;;;;;4.07;1.40;;;11.30;73.80;;;;;;5099751;27;20024;-63
2021/11/30 18:24:27;;;;;;;3.05;0.93;;;11.30;73.90;;;;;;5100850;27;20474;-62
2021/11/30 18:26:53;;;;;;;2.92;0.95;;;11.30;73.90;;;;;;5106369;27;20039;-62
2021/11/30 18:29:19;;;;;;;2.55;0.82;;;11.30;74.00;;;;;;5091083;28;20020;-62
2021/11/30 18:31:45;;;;;;;3.83;1.00;;;11.30;73.80;;;;;;5093683;28;20034;-64
2021/11/30 18:34:11;;;;;;;3.85;0.90;;;11.30;73.50;;;;;;5107894;27;20027;-64
2021/11/30 18:36:37;;;;;;;2.92;1.05;;;11.30;73.30;;;;;;5113127;27;20035;-63
2021/11/30 18:39:04;;;;;;;4.30;0.95;;;11.30;73.40;;;;;;5113818;27;20039;-63
2021/11/30 18:41:29;;;;;;;3.60;1.10;;;11.30;73.50;;;;;;5099419;27;20106;-62
2021/11/30 18:43:56;;;;;;;4.20;0.90;;;11.30;73.40;;;;;;5102706;28;20110;-63
2021/11/30 18:46:22;;;;;;;4.35;1.02;;;11.30;72.90;;;;;;5094680;28;20499;-62
2021/11/30 18:48:48;;;;;;;3.30;1.10;;;11.30;73.00;;;;;;5096540;28;20525;-62
2021/11/30 18:51:21;;;;;;;2.58;1.10;;;11.30;73.30;;;;;;5091932;28;20081;-62
2021/11/30 18:53:48;;;;;;;4.25;1.20;;;11.30;73.40;;;;;;5082818;28;20028;-63
2021/11/30 18:56:14;;;;;;;3.78;1.17;;;11.30;73.40;;;;;;5091716;28;20044;-62
2021/11/30 18:58:41;;;;;;;5.57;1.17;;;11.20;74.20;;;;;;5101044;28;20107;-62
2021/11/30 19:01:07;;;;;;;5.07;1.20;;;11.30;73.30;;;;;;5096953;28;20024;-62
2021/11/30 19:03:33;;;;;;;4.22;1.35;;;11.20;73.40;;;;;;5094751;28;20502;-62
2021/11/30 19:06:01;;;;;;;5.90;1.20;;;11.20;73.30;;;;;;5102487;28;20050;-62
2021/11/30 19:08:28;;;;;;;4.90;1.23;;;11.20;73.40;;;;;;5106830;28;20570;-63
2021/11/30 19:10:59;;;;;;;6.35;1.38;;;11.20;73.20;;;;;;5101300;28;20064;-62
2021/11/30 19:13:26;;;;;;;3.20;1.20;;;11.20;73.40;;;;;;5094433;28;20036;-62
2021/11/30 19:15:52;;;;;;;6.18;1.30;;;11.20;73.40;;;;;;5102817;28;20505;-63
2021/11/30 19:18:18;;;;;;;4.97;1.30;;;11.20;73.50;;;;;;5097412;28;20036;-63
2021/11/30 19:20:44;;;;;;;4.13;1.08;;;11.20;73.70;;;;;;5103527;28;20020;-63
2021/11/30 19:23:10;;;;;;;4.90;1.17;;;11.20;73.80;;;;;;5100795;28;20066;-63
2021/11/30 19:25:36;;;;;;;5.50;1.02;;;11.20;73.70;;;;;;5105218;28;20024;-63
2021/11/30 19:28:05;;;;;;;4.15;1.23;;;11.20;73.40;;;;;;5103988;28;20083;-63
2021/11/30 19:30:32;;;;;;;3.78;1.00;;;11.20;73.40;;;;;;5104573;28;20036;-61
2021/11/30 19:32:59;;;;;;;7.20;1.10;;;11.10;73.40;;;;;;5096845;28;20027;-62
2021/11/30 19:35:25;;;;;;;3.03;1.00;;;11.10;73.20;;;;;;5099739;28;20051;-62
2021/11/30 19:37:56;;;;;;;5.15;1.15;;;11.10;73.20;;;;;;5104519;28;20035;-62
2021/11/30 19:40:22;;;;;;;;;;;11.10;73.20;;;;;;5093273;28;20122;-62
2021/11/30 19:42:52;;;;;;;2.95;1.10;;;11.10;73.40;;;;;;5095596;28;20325;-62
2021/11/30 19:45:18;;;;;;;6.43;1.27;;;11.10;73.50;;;;;;5090980;28;20038;-62
2021/11/30 19:47:43;;;;;;;6.20;1.30;;;11.10;73.70;;;;;;5096267;28;20523;-62
2021/11/30 19:50:11;;;;;;;6.20;1.55;;;11.00;73.90;;;;;;5099274;28;20026;-62
2021/11/30 19:52:37;;;;;;;4.82;1.30;;;11.00;74.00;;;;;;5104027;28;20102;-62
2021/11/30 19:55:04;;;;;;;6.28;1.65;;;11.00;74.00;;;;;;5102025;28;20612;-62
2021/11/30 19:57:34;;;;;;;3.30;1.30;;;11.00;74.20;;;;;;5100325;28;20036;-62
2021/11/30 20:00:10;;;;;;;4.75;1.45;;;11.00;74.40;;;;;;5097299;28;20538;-62
2021/11/30 20:05:23;;;;;;;4.60;1.40;;;11.00;74.80;;;;;;5105860;28;20445;-61
2021/11/30 20:07:50;;;;;;;4.97;1.45;;;11.00;75.10;;;;;;5099587;28;20135;-62
2021/11/30 20:10:17;;;;;;;5.22;1.30;;;11.00;75.40;;;;;;5100045;28;20031;-62